Lancaster, Wisconsin
Current Conditions -  °F | °C
As of 3:35 AM on Monday 24 Nov 2014 (Local Time) from KPVB Reporting Station
Overcast Overcast  
Wind Chill: 30°   Ceiling: 400
Heat Index: 39°   Visibility: 10mi
Dew Point: 38°   Wind: 15mph
Humidity: 97%   Direction: 300°WNW
Pressure: 29.13"   Gusts: NA
Location:  42.85°N, 90.71°W
Report Text: KPVB 240935Z AUTO 30013KT 10SM OVC004 04/03 A2913 RMK AO1 T00370033
Loading
Personal Weather Stations






























Interactive Weather Map New forecast layout! Learn more

10-Day Weather Forecast

Advertisements
Track Severe Weather on mobile